createdAt,value
2023-04-20T00:00:39.721Z,4.60
2023-04-20T00:01:39.729Z,4.00
2023-04-20T00:02:39.840Z,3.60
2023-04-20T00:03:39.763Z,7.70
2023-04-20T00:04:39.575Z,4.10
2023-04-20T00:05:39.492Z,4.40
2023-04-20T00:06:39.471Z,6.40
2023-04-20T00:07:39.453Z,5.30
2023-04-20T00:08:39.363Z,4.50
2023-04-20T00:09:39.321Z,5.50
2023-04-20T00:10:39.264Z,3.80
2023-04-20T00:11:39.221Z,5.10
2023-04-20T00:12:39.180Z,4.50
2023-04-20T00:13:39.135Z,5.70
2023-04-20T00:14:39.084Z,5.20
2023-04-20T00:15:39.055Z,5.90
2023-04-20T00:16:39.036Z,5.00
2023-04-20T00:17:38.983Z,4.70
2023-04-20T00:18:38.899Z,4.60
2023-04-20T18:00:17.354Z,2.40
2023-04-20T18:01:17.333Z,4.80
2023-04-20T18:02:17.380Z,5.30
2023-04-20T18:03:17.279Z,5.30
2023-04-20T18:04:17.484Z,4.90
2023-04-20T18:05:17.085Z,4.80
2023-04-20T18:06:17.042Z,5.30
2023-04-20T18:07:16.992Z,5.40
2023-04-20T18:08:16.957Z,5.30
2023-04-20T18:09:16.911Z,5.40
2023-04-20T18:10:16.868Z,5.10
2023-04-20T19:02:23.613Z,8.40
2023-04-20T19:03:23.494Z,7.40
2023-04-20T19:04:23.594Z,8.20
2023-04-20T19:05:23.269Z,7.00
2023-04-20T19:06:23.222Z,7.50
2023-04-20T19:08:23.131Z,8.50
2023-04-20T19:09:23.090Z,8.20
2023-04-20T19:10:23.042Z,8.20
2023-04-20T19:11:23.005Z,8.60
2023-04-20T19:12:22.952Z,8.70
2023-04-20T19:13:22.908Z,9.20
2023-04-20T19:14:22.858Z,8.60
2023-04-20T19:15:22.824Z,9.30
2023-04-20T19:16:22.818Z,9.20
2023-04-20T19:17:22.725Z,9.00
2023-04-20T19:18:22.722Z,9.10
2023-04-20T19:19:22.684Z,8.30
2023-04-20T19:20:22.614Z,8.60
2023-04-20T19:21:22.636Z,8.30
2023-04-20T19:22:22.510Z,9.30
2023-04-20T19:23:22.469Z,8.90
2023-04-20T19:24:22.410Z,8.90
2023-04-20T19:25:22.389Z,8.60
2023-04-20T19:27:22.276Z,8.50
2023-04-20T19:28:24.063Z,8.30
2023-04-20T19:29:22.188Z,9.10
2023-04-20T19:30:22.140Z,8.70
2023-04-20T19:31:22.138Z,8.40
2023-04-20T19:33:22.006Z,8.40
2023-04-20T19:34:21.978Z,8.60
2023-04-20T19:35:21.918Z,8.60
2023-04-20T19:36:21.875Z,8.40
2023-04-20T19:38:21.794Z,8.30
2023-04-20T19:39:21.746Z,8.90
2023-04-20T19:40:21.694Z,8.30
2023-04-20T19:41:21.647Z,9.70
2023-04-20T19:42:21.608Z,8.80
2023-04-20T19:44:21.516Z,8.50
2023-04-20T19:45:21.471Z,8.50
2023-04-20T19:46:21.546Z,8.20
2023-04-20T19:48:21.385Z,9.20
2023-04-20T19:49:21.460Z,8.40
2023-04-20T19:50:21.267Z,9.00
2023-04-20T19:51:21.201Z,9.00
2023-04-20T19:52:21.162Z,9.40
2023-04-20T19:53:21.120Z,9.40
2023-04-20T19:54:21.067Z,9.60
2023-04-20T19:55:21.025Z,9.80
2023-04-20T20:06:10.603Z,11.60
2023-04-20T20:07:10.548Z,11.00
2023-04-20T20:08:10.496Z,11.70
2023-04-20T20:10:10.398Z,12.40
2023-04-20T20:11:10.353Z,11.90
2023-04-20T20:12:10.303Z,11.60
2023-04-20T20:13:10.266Z,12.00
2023-04-20T20:14:10.228Z,12.00
2023-04-20T20:15:10.177Z,12.10
2023-04-20T20:16:10.163Z,12.30
2023-04-20T20:17:10.077Z,11.90
2023-04-20T20:18:10.095Z,12.10
2023-04-20T20:19:09.985Z,11.80
2023-04-20T20:20:09.936Z,12.00
2023-04-20T20:21:09.896Z,12.20
2023-04-20T20:22:09.868Z,12.60
2023-04-20T20:23:09.821Z,12.70
2023-04-20T20:24:09.765Z,11.80
2023-04-20T20:25:09.717Z,11.60
2023-04-20T20:26:09.670Z,12.10
2023-04-20T20:27:09.637Z,12.20
2023-04-20T20:28:09.574Z,13.50
2023-04-20T20:29:09.536Z,12.00
2023-04-20T20:30:09.488Z,12.90
2023-04-20T20:31:09.449Z,13.30
2023-04-20T20:33:09.547Z,13.50
2023-04-20T20:34:09.386Z,13.30
2023-04-20T20:37:09.171Z,13.80
2023-04-20T20:38:09.163Z,14.90
2023-04-20T20:39:09.084Z,15.00
2023-04-20T20:41:08.994Z,14.50
2023-04-20T20:42:09.255Z,14.60
2023-04-20T20:43:08.913Z,14.70
2023-04-20T20:44:08.860Z,15.20
2023-04-20T20:45:08.819Z,15.60
2023-04-20T20:46:08.779Z,15.20
2023-04-20T20:47:08.719Z,16.10
2023-04-20T20:48:08.838Z,15.60
2023-04-20T20:49:08.640Z,15.30
2023-04-20T20:50:08.605Z,16.20
2023-04-20T20:51:08.544Z,15.70
2023-04-20T20:52:08.506Z,16.00
2023-04-20T20:53:08.457Z,16.10
2023-04-20T20:54:08.450Z,15.40
2023-04-20T20:55:08.383Z,15.80
2023-04-20T20:56:08.372Z,16.30
2023-04-20T20:57:08.324Z,16.70
2023-04-20T20:59:08.219Z,16.80
2023-04-20T21:00:08.141Z,17.90
2023-04-20T21:01:08.119Z,17.70
2023-04-20T21:02:08.164Z,18.20
2023-04-20T21:03:08.186Z,17.70
2023-04-20T21:04:08.223Z,18.30
2023-04-20T21:05:07.915Z,19.20
2023-04-20T21:06:07.872Z,18.30
2023-04-20T21:07:07.843Z,19.40
2023-04-20T21:08:07.789Z,19.30
2023-04-20T21:18:52.225Z,20.10
2023-04-20T21:19:52.164Z,20.60
2023-04-20T21:20:52.114Z,21.40
2023-04-20T21:21:52.068Z,22.50
2023-04-20T21:22:52.027Z,22.30
2023-04-20T21:23:51.972Z,21.60
2023-04-20T21:24:51.939Z,22.70
2023-04-20T21:25:51.890Z,23.80
2023-04-20T21:26:51.844Z,24.00
2023-04-20T21:27:51.795Z,23.40
2023-04-20T21:28:51.751Z,23.30
2023-04-20T21:29:51.710Z,22.80
2023-04-20T21:30:51.665Z,24.10
2023-04-20T21:31:51.655Z,22.90
2023-04-20T21:32:51.611Z,24.10
2023-04-20T21:33:51.523Z,24.60
2023-04-20T21:34:51.503Z,24.40
2023-04-20T21:35:51.442Z,24.50
2023-04-20T21:36:51.391Z,25.80
2023-04-20T21:37:51.344Z,24.00
2023-04-20T21:38:51.308Z,23.40
2023-04-20T21:39:51.274Z,24.60
2023-04-20T21:40:51.211Z,24.30
